Time;durP1;ratioP1;P1;durP2;ratioP2;P2;SDS_P1;SDS_P2;PMS_P1;PMS_P2;Temp;Humidity;BMP_temperature;BMP_pressure;BME280_temperature;BME280_humidity;BME280_pressure;Samples;Min_cycle;Max_cycle;Signal;HPM_P1;HPM_P2
2021/11/03 00:01:40;;;;;;;;;;;7.80;99.90;;;;;;5032122;28;19948;-69
2021/11/03 00:04:08;;;;;;;;;;;7.90;99.90;;;;;;5032618;28;19921;-69
2021/11/03 00:06:33;;;;;;;;;;;7.80;99.90;;;;;;5033057;28;19992;-69
2021/11/03 00:09:00;;;;;;;;;;;7.80;99.90;;;;;;5031726;28;19968;-70
2021/11/03 00:11:26;;;;;;;;;;;7.80;99.90;;;;;;5006729;28;19928;-70
2021/11/03 00:13:51;;;;;;;;;;;7.70;99.90;;;;;;5030452;28;19921;-69
2021/11/03 00:16:17;;;;;;;;;;;7.70;99.90;;;;;;5032070;28;19921;-69
2021/11/03 00:18:42;;;;;;;;;;;7.60;99.90;;;;;;5032137;28;19975;-70
2021/11/03 00:21:08;;;;;;;;;;;7.60;99.90;;;;;;5032119;28;20388;-69
2021/11/03 00:23:33;;;;;;;;;;;7.50;99.90;;;;;;5031503;28;19925;-69
2021/11/03 00:25:59;;;;;;;;;;;7.50;99.90;;;;;;5033293;28;19917;-69
2021/11/03 00:28:24;;;;;;;;;;;7.50;99.90;;;;;;5032936;28;19917;-70
2021/11/03 00:30:51;;;;;;;;;;;7.50;99.90;;;;;;5029069;28;19922;-70
2021/11/03 00:33:17;;;;;;;;;;;7.50;99.90;;;;;;5027371;28;19917;-70
2021/11/03 00:35:43;;;;;;;;;;;7.50;99.90;;;;;;5029974;28;19921;-69
2021/11/03 00:38:09;;;;;;;;;;;7.50;99.90;;;;;;5030939;28;19924;-70
2021/11/03 00:40:34;;;;;;;;;;;7.50;99.90;;;;;;5030927;28;19928;-70
2021/11/03 00:43:00;;;;;;;;;;;7.50;99.90;;;;;;5030315;28;20470;-70
2021/11/03 00:45:25;;;;;;;;;;;7.50;99.90;;;;;;5031241;28;20279;-70
2021/11/03 00:47:51;;;;;;;;;;;7.50;99.90;;;;;;5029128;28;20330;-70
2021/11/03 00:50:17;;;;;;;;;;;7.50;99.90;;;;;;5027224;28;19990;-69
2021/11/03 00:52:43;;;;;;;;;;;7.60;99.90;;;;;;5031178;28;19958;-70
2021/11/03 00:55:08;;;;;;;;;;;7.50;99.90;;;;;;5013276;28;20302;-70
2021/11/03 00:57:34;;;;;;;;;;;7.50;99.90;;;;;;5030192;28;20025;-70
2021/11/03 00:59:59;;;;;;;;;;;7.60;99.90;;;;;;5030952;28;19924;-69
2021/11/03 01:02:25;;;;;;;;;;;7.60;99.90;;;;;;5031469;28;19917;-70
2021/11/03 01:04:50;;;;;;;;;;;7.60;99.90;;;;;;5028358;28;19999;-70
2021/11/03 01:07:16;;;;;;;;;;;7.60;99.90;;;;;;5029938;28;19920;-69
2021/11/03 01:09:42;;;;;;;;;;;7.60;99.90;;;;;;5030481;28;19917;-70
2021/11/03 01:12:08;;;;;;;;;;;7.60;99.90;;;;;;5030208;28;19932;-70
2021/11/03 01:14:34;;;;;;;;;;;7.60;99.90;;;;;;5030881;28;20294;-70
2021/11/03 01:17:00;;;;;;;;;;;7.60;99.90;;;;;;5014456;28;19991;-70
2021/11/03 01:19:25;;;;;;;;;;;7.60;99.90;;;;;;5028981;28;20363;-70
2021/11/03 01:21:51;;;;;;;;;;;7.70;99.90;;;;;;5026214;28;19966;-70
2021/11/03 01:24:16;;;;;;;;;;;7.70;99.90;;;;;;5012367;28;19921;-70
2021/11/03 01:26:42;;;;;;;;;;;7.70;99.90;;;;;;5030287;28;19921;-70
2021/11/03 01:29:08;;;;;;;;;;;7.70;99.90;;;;;;5030934;28;19960;-70
2021/11/03 01:31:33;;;;;;;;;;;7.70;99.90;;;;;;5028992;28;19967;-70
2021/11/03 01:33:59;;;;;;;;;;;7.70;99.90;;;;;;5029030;28;19924;-70
2021/11/03 01:36:25;;;;;;;;;;;7.70;99.90;;;;;;5026597;28;20370;-70
2021/11/03 01:38:51;;;;;;;;;;;7.70;99.90;;;;;;5028735;28;19920;-70
2021/11/03 01:41:17;;;;;;;;;;;7.70;99.90;;;;;;5027710;28;20282;-70
2021/11/03 01:43:50;;;;;;;;;;;7.70;99.90;;;;;;5022300;28;19921;-70
2021/11/03 01:46:20;;;;;;;;;;;7.70;99.90;;;;;;5026583;28;19921;-70
2021/11/03 01:48:46;;;;;;;;;;;7.70;99.90;;;;;;5027409;28;19924;-70
2021/11/03 01:51:18;;;;;;;;;;;7.70;99.90;;;;;;5027480;28;19932;-70
2021/11/03 01:53:44;;;;;;;;;;;7.70;99.90;;;;;;5025473;28;19925;-70
2021/11/03 01:56:10;;;;;;;;;;;7.60;99.90;;;;;;5029041;28;19963;-70
2021/11/03 01:58:41;;;;;;;;;;;7.60;99.90;;;;;;5028487;28;19928;-70
2021/11/03 02:01:07;;;;;;;;;;;7.60;99.90;;;;;;5030231;28;19921;-70
2021/11/03 02:03:33;;;;;;;;;;;7.60;99.90;;;;;;5022218;28;19924;-70
2021/11/03 02:06:02;;;;;;;;;;;7.60;99.90;;;;;;5030783;28;19986;-70
2021/11/03 02:08:29;;;;;;;;;;;7.60;99.90;;;;;;5028290;28;20378;-70
2021/11/03 02:10:54;;;;;;;;;;;7.60;99.90;;;;;;5028267;28;19921;-70
2021/11/03 02:13:20;;;;;;;;;;;7.60;99.90;;;;;;5029542;28;19967;-70
2021/11/03 02:15:46;;;;;;;;;;;7.60;99.90;;;;;;5028661;28;19967;-70
2021/11/03 02:18:12;;;;;;;;;;;7.60;99.90;;;;;;5026638;28;20008;-70
2021/11/03 02:20:39;;;;;;;;;;;7.50;99.90;;;;;;5029096;28;19928;-70
2021/11/03 02:23:22;;;;;;;;;;;7.50;99.90;;;;;;5029627;28;19917;-70
2021/11/03 02:25:51;;;;;;;;;;;7.60;99.90;;;;;;5026916;28;20450;-70
2021/11/03 02:28:17;;;;;;;;;;;7.50;99.90;;;;;;5023868;28;19981;-70
2021/11/03 02:30:42;;;;;;;;;;;7.50;99.90;;;;;;5028938;28;20343;-70
2021/11/03 02:33:10;;;;;;;;;;;7.50;99.90;;;;;;5027256;28;19964;-70
2021/11/03 02:35:37;;;;;;;;;;;7.50;99.90;;;;;;5025825;28;19963;-70
2021/11/03 02:38:03;;;;;;;;;;;7.50;99.90;;;;;;5027452;28;19927;-70
2021/11/03 02:40:32;;;;;;;;;;;7.50;99.90;;;;;;5024089;28;19925;-70
2021/11/03 02:43:01;;;;;;;;;;;7.50;99.90;;;;;;5027950;28;19928;-70
2021/11/03 02:45:31;;;;;;;;;;;7.50;99.90;;;;;;5008866;28;20004;-70
2021/11/03 02:47:57;;;;;;;;;;;7.50;99.90;;;;;;5026208;28;20349;-70
2021/11/03 02:50:22;;;;;;;;;;;7.40;99.90;;;;;;5027644;28;19960;-70
2021/11/03 02:52:48;;;;;;;;;;;7.40;99.90;;;;;;5026604;28;20363;-70
2021/11/03 02:55:13;;;;;;;;;;;7.40;99.90;;;;;;5027277;28;19921;-70
2021/11/03 02:57:39;;;;;;;;;;;7.50;99.90;;;;;;5028614;28;20021;-70
2021/11/03 03:00:10;;;;;;;;;;;7.40;99.90;;;;;;5030352;28;19924;-70
2021/11/03 03:02:36;;;;;;;;;;;7.40;99.90;;;;;;5029138;28;19925;-70
2021/11/03 03:05:02;;;;;;;;;;;7.40;99.90;;;;;;5027136;28;20577;-70
2021/11/03 03:07:27;;;;;;;;;;;7.40;99.90;;;;;;5024230;28;19917;-70
2021/11/03 03:09:53;;;;;;;;;;;7.40;99.90;;;;;;5030819;28;19974;-70
2021/11/03 03:12:20;;;;;;;;;;;7.40;99.90;;;;;;5016232;28;19939;-70
2021/11/03 03:14:46;;;;;;;;;;;7.40;99.90;;;;;;5014817;28;20451;-70
2021/11/03 03:17:13;;;;;;;;;;;7.40;99.90;;;;;;5030781;28;20494;-70
2021/11/03 03:19:39;;;;;;;;;;;7.40;99.90;;;;;;5023620;28;19960;-70
2021/11/03 03:22:04;;;;;;;;;;;7.30;99.90;;;;;;5031150;28;19921;-70
2021/11/03 03:24:30;;;;;;;;;;;7.30;99.90;;;;;;5032717;28;19924;-70
2021/11/03 03:26:56;;;;;;;;;;;7.30;99.90;;;;;;5034149;28;19917;-70
2021/11/03 03:29:21;;;;;;;;;;;7.30;99.90;;;;;;5032620;28;19917;-70
2021/11/03 03:31:47;;;;;;;;;;;7.30;99.90;;;;;;5034312;28;20023;-70
2021/11/03 03:34:14;;;;;;;;;;;7.30;99.90;;;;;;5031818;28;20378;-70
2021/11/03 03:36:40;;;;;;;;;;;7.30;99.90;;;;;;5031638;28;20260;-70
2021/11/03 03:39:08;;;;;;;;;;;7.30;99.90;;;;;;5034225;28;19924;-70
2021/11/03 03:41:34;;;;;;;;;;;7.30;99.90;;;;;;5032505;28;19924;-70
2021/11/03 03:43:59;;;;;;;;;;;7.30;99.90;;;;;;5028619;28;19921;-70
2021/11/03 03:46:25;;;;;;;;;;;7.20;99.90;;;;;;5027814;28;19924;-70
2021/11/03 03:48:50;;;;;;;;;;;7.20;99.90;;;;;;5015636;28;19917;-70
2021/11/03 03:51:16;;;;;;;;;;;7.20;99.90;;;;;;5032493;28;19928;-70
2021/11/03 03:53:41;;;;;;;;;;;7.20;99.90;;;;;;5032268;28;19971;-70
2021/11/03 03:56:07;;;;;;;;;;;7.10;99.90;;;;;;5031367;28;19920;-70
2021/11/03 03:58:33;;;;;;;;;;;7.10;99.90;;;;;;5031848;28;20453;-70
2021/11/03 04:00:59;;;;;;;;;;;7.10;99.90;;;;;;5032336;28;19963;-70
2021/11/03 04:03:24;;;;;;;;;;;7.00;99.90;;;;;;5030696;28;19948;-70
2021/11/03 04:05:50;;;;;;;;;;;6.90;99.90;;;;;;5031298;28;19920;-70
2021/11/03 04:08:16;;;;;;;;;;;6.80;99.90;;;;;;5030337;28;20019;-70
2021/11/03 04:10:43;;;;;;;;;;;6.70;99.90;;;;;;5032160;28;20039;-70
2021/11/03 04:13:09;;;;;;;;;;;6.70;99.90;;;;;;5030728;28;20305;-70
2021/11/03 04:15:34;;;;;;;;;;;6.60;99.90;;;;;;5031198;28;19917;-70
2021/11/03 04:18:00;;;;;;;;;;;6.50;99.90;;;;;;5029219;28;19925;-70
2021/11/03 04:20:25;;;;;;;;;;;6.40;99.90;;;;;;5029393;28;19921;-70
2021/11/03 04:22:51;;;;;;;;;;;6.30;99.90;;;;;;5030797;28;20402;-70
2021/11/03 04:25:17;;;;;;;;;;;6.30;99.90;;;;;;5031159;28;20386;-70
2021/11/03 04:27:42;;;;;;;;;;;6.20;99.90;;;;;;5026916;28;19921;-69
2021/11/03 04:30:10;;;;;;;;;;;6.20;99.90;;;;;;5029987;28;19939;-70
2021/11/03 04:32:35;;;;;;;;;;;6.20;99.90;;;;;;5013850;28;20907;-70
2021/11/03 04:35:01;;;;;;;;;;;6.10;99.90;;;;;;5031013;28;19996;-70
2021/11/03 04:37:26;;;;;;;;;;;6.20;99.90;;;;;;5029232;28;19924;-70
2021/11/03 04:39:52;;;;;;;;;;;6.10;99.90;;;;;;5030110;28;19925;-70
2021/11/03 04:42:17;;;;;;;;;;;6.20;99.90;;;;;;5030401;28;19921;-70
2021/11/03 04:44:43;;;;;;;;;;;6.20;99.90;;;;;;5024955;28;20263;-70
2021/11/03 04:47:08;;;;;;;;;;;6.20;99.90;;;;;;5029871;28;19956;-70
2021/11/03 04:49:34;;;;;;;;;;;6.20;99.90;;;;;;5030435;28;19921;-70
2021/11/03 04:52:00;;;;;;;;;;;6.30;99.90;;;;;;5028492;28;20003;-70
2021/11/03 04:54:25;;;;;;;;;;;6.20;99.90;;;;;;5030357;28;19917;-70
2021/11/03 04:56:51;;;;;;;;;;;6.20;99.90;;;;;;5031261;28;19921;-70
2021/11/03 04:59:17;;;;;;;;;;;6.10;99.90;;;;;;5027278;28;19921;-70
2021/11/03 05:01:43;;;;;;;;;;;6.00;99.90;;;;;;5030274;28;19930;-70
2021/11/03 05:04:08;;;;;;;;;;;6.00;99.90;;;;;;5030936;28;19935;-70
2021/11/03 05:06:35;;;;;;;;;;;5.90;99.90;;;;;;5029227;28;19916;-70
2021/11/03 05:09:02;;;;;;;;;;;5.90;99.90;;;;;;5028668;28;20252;-70
2021/11/03 05:11:28;;;;;;;;;;;5.80;99.90;;;;;;5027166;28;19967;-70
2021/11/03 05:13:53;;;;;;;;;;;5.80;99.90;;;;;;5030653;28;19934;-70
2021/11/03 05:16:20;;;;;;;;;;;5.80;99.90;;;;;;5030664;28;19921;-70
2021/11/03 05:18:45;;;;;;;;;;;5.80;99.90;;;;;;5030508;28;20422;-70
2021/11/03 05:21:14;;;;;;;;;;;5.80;99.90;;;;;;5030840;28;20016;-70
2021/11/03 05:23:40;;;;;;;;;;;5.80;99.90;;;;;;5026259;28;19917;-70
2021/11/03 05:26:05;;;;;;;;;;;5.80;99.90;;;;;;5028476;28;19917;-70
2021/11/03 05:28:31;;;;;;;;;;;5.90;99.90;;;;;;5030379;28;19920;-70
2021/11/03 05:30:58;;;;;;;;;;;5.80;99.90;;;;;;5029999;28;19928;-70
2021/11/03 05:33:23;;;;;;;;;;;5.80;99.90;;;;;;5030035;28;19917;-70
2021/11/03 05:35:49;;;;;;;;;;;5.70;99.90;;;;;;5029846;28;19967;-67
2021/11/03 05:38:15;;;;;;;;;;;5.70;99.90;;;;;;5023929;28;19929;-68
2021/11/03 05:40:41;;;;;;;;;;;5.60;99.90;;;;;;5029962;28;20346;-68
2021/11/03 05:43:07;;;;;;;;;;;5.50;99.90;;;;;;5027410;28;19931;-68
2021/11/03 05:45:32;;;;;;;;;;;5.50;99.90;;;;;;5031182;28;20591;-67
2021/11/03 05:47:58;;;;;;;;;;;5.40;99.90;;;;;;5031349;28;19982;-68
2021/11/03 05:50:26;;;;;;;;;;;5.40;99.90;;;;;;5029385;28;20433;-68
2021/11/03 05:52:51;;;;;;;;;;;5.30;99.90;;;;;;5030668;28;19967;-67
2021/11/03 05:55:17;;;;;;;;;;;5.30;99.90;;;;;;5029376;28;19925;-67
2021/11/03 05:57:44;;;;;;;;;;;5.30;99.90;;;;;;5029736;28;19967;-68
2021/11/03 06:00:15;;;;;;;;;;;5.30;99.90;;;;;;5030791;28;19917;-68
2021/11/03 06:02:41;;;;;;;;;;;5.40;99.90;;;;;;5030457;28;19971;-67
2021/11/03 06:05:07;;;;;;;;;;;5.40;99.90;;;;;;5030540;28;19925;-68
2021/11/03 06:07:33;;;;;;;;;;;5.50;99.90;;;;;;5029334;28;19921;-68
2021/11/03 06:10:00;;;;;;;;;;;5.50;99.90;;;;;;5029372;28;19921;-67
2021/11/03 06:12:25;;;;;;;;;;;5.50;99.90;;;;;;5030914;28;20012;-68
2021/11/03 06:14:51;;;;;;;;;;;5.60;99.90;;;;;;5029207;28;20008;-68
2021/11/03 06:17:16;;;;;;;;;;;5.60;99.90;;;;;;5013295;28;20031;-68
2021/11/03 06:19:42;;;;;;;;;;;5.70;99.90;;;;;;5029526;28;19917;-68
2021/11/03 06:22:07;;;;;;;;;;;5.60;99.90;;;;;;5030932;28;19999;-68
2021/11/03 06:24:33;;;;;;;;;;;5.70;99.90;;;;;;5030971;28;19927;-68
2021/11/03 06:26:59;;;;;;;;;;;5.70;99.90;;;;;;5035775;28;19928;-67
2021/11/03 06:29:25;;;;;;;;;;;5.60;99.90;;;;;;5030731;28;19921;-68
2021/11/03 06:31:50;;;;;;;;;;;5.70;99.90;;;;;;5031068;28;19917;-67
2021/11/03 06:34:16;;;;;;;;;;;5.60;99.90;;;;;;5029518;28;19917;-67
2021/11/03 06:36:41;;;;;;;;;;;5.60;99.90;;;;;;5028235;28;19967;-67
2021/11/03 06:39:07;;;;;;;;;;;5.60;99.90;;;;;;5028186;28;19994;-68
2021/11/03 06:41:35;;;;;;;;;;;5.60;99.90;;;;;;5030529;28;19921;-68
2021/11/03 06:44:01;;;;;;;;;;;5.60;99.90;;;;;;5033812;28;20401;-68
2021/11/03 06:46:27;;;;;;;;;;;5.50;99.90;;;;;;5032948;28;19921;-68
2021/11/03 06:48:52;;;;;;;;;;;5.60;99.90;;;;;;5032725;28;19925;-67
2021/11/03 06:51:18;;;;;;;;;;;5.60;99.90;;;;;;5032224;28;19924;-67
2021/11/03 06:53:43;;;;;;;;;;;5.60;99.90;;;;;;5032350;28;19917;-67
2021/11/03 06:56:09;;;;;;;;;;;5.60;99.90;;;;;;5033825;28;20026;-68
2021/11/03 06:58:35;;;;;;;;;;;5.60;99.90;;;;;;5032687;28;19921;-68
2021/11/03 07:01:01;;;;;;;;;;;5.70;99.90;;;;;;5033912;28;19925;-68
2021/11/03 07:03:28;;;;;;;;;;;5.70;99.90;;;;;;5032977;28;19924;-67
2021/11/03 07:05:54;;;;;;;;;;;5.70;99.90;;;;;;5033985;28;19931;-67
2021/11/03 07:08:21;;;;;;;;;;;5.70;99.90;;;;;;5034213;28;20044;-68
2021/11/03 07:10:48;;;;;;;;;;;5.80;99.90;;;;;;5032519;28;19921;-67
2021/11/03 07:13:14;;;;;;;;;;;5.70;99.90;;;;;;5033964;28;20051;-68
2021/11/03 07:15:40;;;;;;;;;;;5.80;99.90;;;;;;5032553;28;19917;-68
2021/11/03 07:18:06;;;;;;;;;;;5.80;99.90;;;;;;5034141;28;19921;-67
2021/11/03 07:20:31;;;;;;;;;;;5.70;99.90;;;;;;5033862;28;19925;-68
2021/11/03 07:22:57;;;;;;;;;;;5.70;99.90;;;;;;5015914;28;19971;-68
2021/11/03 07:25:24;;;;;;;;;;;5.70;99.90;;;;;;5034683;28;20278;-67
2021/11/03 07:27:51;;;;;;;;;;;5.80;99.90;;;;;;5032234;28;19924;-67
2021/11/03 07:30:17;;;;;;;;;;;5.80;99.90;;;;;;5032284;28;20003;-67
2021/11/03 07:32:43;;;;;;;;;;;5.90;99.90;;;;;;5032898;28;19944;-67
2021/11/03 07:35:09;;;;;;;;;;;5.90;99.90;;;;;;5030952;28;20039;-67
2021/11/03 07:37:34;;;;;;;;;;;5.90;99.90;;;;;;5031511;28;20015;-67
2021/11/03 07:40:00;;;;;;;;;;;6.00;99.90;;;;;;5026231;28;19917;-67
2021/11/03 07:42:25;;;;;;;;;;;6.00;99.90;;;;;;5030802;28;19920;-67
2021/11/03 07:44:51;;;;;;;;;;;6.00;99.90;;;;;;5031825;28;19924;-67
2021/11/03 07:47:17;;;;;;;;;;;6.00;99.90;;;;;;5031561;28;19924;-68
2021/11/03 07:49:42;;;;;;;;;;;6.00;99.90;;;;;;5013546;28;19925;-68
2021/11/03 07:52:08;;;;;;;;;;;6.00;99.90;;;;;;5030382;28;20325;-68
2021/11/03 07:54:34;;;;;;;;;;;6.00;99.90;;;;;;5031105;28;19964;-67
2021/11/03 07:56:59;;;;;;;;;;;6.00;99.90;;;;;;5031724;28;19928;-68
2021/11/03 07:59:25;;;;;;;;;;;6.00;99.90;;;;;;5031742;28;19921;-68
2021/11/03 08:01:51;;;;;;;;;;;6.00;99.90;;;;;;5034310;28;19921;-68
2021/11/03 08:04:17;;;;;;;;;;;6.00;99.90;;;;;;5034285;28;19924;-68
2021/11/03 08:06:43;;;;;;;;;;;6.10;99.90;;;;;;5022172;28;19920;-68
2021/11/03 08:09:08;;;;;;;;;;;6.20;99.90;;;;;;5033822;28;19932;-68
2021/11/03 08:11:46;;;;;;;;;;;6.30;99.90;;;;;;5032407;28;19924;-68
2021/11/03 08:14:12;;;;;;;;;;;6.40;99.90;;;;;;5033605;28;19917;-68
2021/11/03 08:16:42;;;;;;;;;;;6.40;99.90;;;;;;5033634;28;19917;-68
2021/11/03 08:19:07;;;;;;;;;;;6.40;99.90;;;;;;5032653;28;19928;-68
2021/11/03 08:21:33;;;;;;;;;;;6.50;99.90;;;;;;5024728;28;19917;-68
2021/11/03 08:23:58;;;;;;;;;;;6.40;99.90;;;;;;5033845;28;19917;-67
2021/11/03 08:26:24;;;;;;;;;;;6.50;99.90;;;;;;5031436;28;20333;-67
2021/11/03 08:28:49;;;;;;;;;;;6.50;99.90;;;;;;5028855;28;19952;-67
2021/11/03 08:31:15;;;;;;;;;;;6.60;99.90;;;;;;5031137;28;20011;-68
2021/11/03 08:33:42;;;;;;;;;;;6.50;99.90;;;;;;5033422;28;19923;-68
2021/11/03 08:36:08;;;;;;;;;;;6.60;99.90;;;;;;5032733;28;19917;-68
2021/11/03 08:38:34;;;;;;;;;;;6.60;99.90;;;;;;5029268;28;19922;-67
2021/11/03 08:40:59;;;;;;;;;;;6.70;99.90;;;;;;5028495;28;19943;-69
2021/11/03 08:43:26;;;;;;;;;;;6.70;99.90;;;;;;5025469;28;20490;-69
2021/11/03 08:45:52;;;;;;;;;;;6.80;99.90;;;;;;5029233;28;20501;-69
2021/11/03 08:48:19;;;;;;;;;;;6.80;99.90;;;;;;5028080;28;19940;-69
2021/11/03 08:50:44;;;;;;;;;;;6.90;99.90;;;;;;5027357;28;19920;-69
2021/11/03 08:53:10;;;;;;;;;;;6.90;99.90;;;;;;5065549;22;19978;-70
2021/11/03 08:55:36;;;;;;;;;;;6.90;99.90;;;;;;5033025;28;19924;-70
2021/11/03 08:58:02;;;;;;;;;;;6.90;99.90;;;;;;5042427;28;19920;-70
2021/11/03 09:00:30;;;;;;;;;;;6.90;99.90;;;;;;5051907;28;19920;-70
2021/11/03 09:02:56;;;;;;;;;;;7.00;99.90;;;;;;5051157;28;19947;-70
2021/11/03 09:05:22;;;;;;;;;;;7.10;99.90;;;;;;5052204;28;19921;-71
2021/11/03 09:07:48;;;;;;;;;;;7.00;99.90;;;;;;5050893;28;19917;-70
2021/11/03 09:10:16;;;;;;;;;;;7.00;99.90;;;;;;5033315;28;19940;-70
2021/11/03 09:12:42;;;;;;;;;;;7.00;99.90;;;;;;5051306;28;19924;-70
2021/11/03 09:15:09;;;;;;;;;;;7.00;99.90;;;;;;5052414;28;20016;-70
2021/11/03 09:17:34;;;;;;;;;;;7.10;99.90;;;;;;5051118;28;20262;-70
2021/11/03 09:20:00;;;;;;;;;;;7.10;99.90;;;;;;5049434;28;19927;-71
2021/11/03 09:22:25;;;;;;;;;;;7.10;99.90;;;;;;5049691;28;19920;-71
2021/11/03 09:24:51;;;;;;;;;;;7.20;99.90;;;;;;5049812;28;20278;-71
2021/11/03 09:27:17;;;;;;;;;;;7.20;99.90;;;;;;5040026;28;20522;-70
2021/11/03 09:29:44;;;;;;;;;;;7.20;99.90;;;;;;5050564;28;19916;-71
2021/11/03 09:32:12;;;;;;;;;;;7.20;99.90;;;;;;5050713;28;20023;-70
2021/11/03 09:34:39;;;;;;;;;;;7.20;99.90;;;;;;5050639;28;19970;-70
2021/11/03 09:37:04;;;;;;;;;;;7.10;99.90;;;;;;5050803;28;20262;-70
2021/11/03 09:39:30;;;;;;;;;;;7.20;99.90;;;;;;5031071;28;19921;-70
2021/11/03 09:41:56;;;;;;;;;;;7.20;99.90;;;;;;5054715;28;19920;-70
2021/11/03 09:44:28;;;;;;;;;;;7.20;99.90;;;;;;5063120;28;19921;-71
2021/11/03 09:46:55;;;;;;;;;;;7.20;99.90;;;;;;5049197;28;20362;-70
2021/11/03 09:49:21;;;;;;;;;;;7.20;99.90;;;;;;5050280;28;19920;-70
2021/11/03 09:51:53;;;;;;;;;;;7.30;99.90;;;;;;5048847;28;20018;-70
2021/11/03 09:54:21;;;;;;;;;;;7.40;99.90;;;;;;5031327;28;19969;-71
2021/11/03 09:56:48;;;;;;;;;;;7.60;99.90;;;;;;5053622;28;20073;-71
2021/11/03 09:59:29;;;;;;;;;;;7.70;99.90;;;;;;5048701;28;19920;-71
2021/11/03 10:02:02;;;;;;;;;;;7.80;99.90;;;;;;5049864;28;19917;-71
2021/11/03 10:04:27;;;;;;;;;;;8.00;99.90;;;;;;5050326;28;20423;-71
2021/11/03 10:07:02;;;;;;;;;;;8.10;99.90;;;;;;5058794;28;19978;-70
2021/11/03 10:09:28;;;;;;;;;;;8.20;99.90;;;;;;5044322;28;19954;-71
2021/11/03 10:11:53;;;;;;;;;;;8.30;99.90;;;;;;5052580;28;19925;-71
2021/11/03 10:14:19;;;;;;;;;;;8.40;99.90;;;;;;5054603;28;19917;-72
2021/11/03 10:16:46;;;;;;;;;;;8.40;99.90;;;;;;5042026;28;19917;-71
2021/11/03 10:19:19;;;;;;;;;;;8.50;99.90;;;;;;5048641;28;20739;-71
2021/11/03 10:21:46;;;;;;;;;;;8.60;99.90;;;;;;5056775;28;20500;-71
2021/11/03 10:24:12;;;;;;;;;;;8.70;99.90;;;;;;5057800;28;19962;-71
2021/11/03 10:26:54;;;;;;;;;;;8.70;99.90;;;;;;5049894;28;20608;-71
2021/11/03 10:29:32;;;;;;;;;;;8.60;99.90;;;;;;5049594;28;19920;-71
2021/11/03 10:31:59;;;;;;;;;;;8.70;99.90;;;;;;5049800;28;19921;-71
2021/11/03 10:34:34;;;;;;;;;;;8.70;99.90;;;;;;5049532;28;19917;-71
2021/11/03 10:37:12;;;;;;;;;;;8.70;99.90;;;;;;5056382;28;19917;-71
2021/11/03 10:39:40;;;;;;;;;;;8.70;99.90;;;;;;5062309;28;19967;-71
2021/11/03 10:42:15;;;;;;;;;;;8.70;99.90;;;;;;5066329;28;20009;-71
2021/11/03 10:44:40;;;;;;;;;;;8.60;99.90;;;;;;5049318;28;19963;-70
2021/11/03 10:47:11;;;;;;;;;;;8.60;99.90;;;;;;5050109;28;20029;-70
2021/11/03 10:49:51;;;;;;;;;;;8.50;99.90;;;;;;5051028;28;19946;-70
2021/11/03 10:52:26;;;;;;;;;;;8.50;99.90;;;;;;5042466;28;20290;-70
2021/11/03 10:54:57;;;;;;;;;;;8.60;99.90;;;;;;5049701;28;19927;-69
2021/11/03 10:57:28;;;;;;;;;;;8.60;99.90;;;;;;5049813;28;19921;-70
2021/11/03 11:00:00;;;;;;;;;;;8.60;99.90;;;;;;5049629;28;19928;-70
2021/11/03 11:02:27;;;;;;;;;;;8.60;99.90;;;;;;5049686;28;20011;-70
2021/11/03 11:04:54;;;;;;;;;;;8.80;99.90;;;;;;5049723;28;19970;-70
2021/11/03 11:07:25;;;;;;;;;;;8.70;99.90;;;;;;5048361;28;19979;-70
2021/11/03 11:09:50;;;;;;;;;;;8.70;99.90;;;;;;5040351;28;19928;-70
2021/11/03 11:12:19;;;;;;;;;;;8.70;99.90;;;;;;5049090;28;19920;-70
2021/11/03 11:14:45;;;;;;;;;;;8.60;99.90;;;;;;5050550;28;19917;-70
2021/11/03 11:17:26;;;;;;;;;;;8.70;99.90;;;;;;5049467;28;19923;-70
2021/11/03 11:20:16;;;;;;;;;;;8.60;99.90;;;;;;5049387;28;19920;-70
2021/11/03 11:22:53;;;;;;;;;;;8.60;99.90;;;;;;5042103;28;19943;-70
2021/11/03 11:25:19;;;;;;;;;;;8.60;99.90;;;;;;5049834;28;19966;-69
2021/11/03 11:28:03;;;;;;;;;;;8.40;99.90;;;;;;5050976;28;20348;-70
2021/11/03 11:30:34;;;;;;;;;;;8.40;99.90;;;;;;5047206;28;19927;-69
2021/11/03 11:33:21;;;;;;;;;;;8.40;99.90;;;;;;5053773;28;19916;-70
2021/11/03 11:36:06;;;;;;;;;;;8.50;99.90;;;;;;5052568;28;20352;-70
2021/11/03 11:38:34;;;;;;;;;;;8.60;99.90;;;;;;5052535;28;19970;-70
2021/11/03 11:41:02;;;;;;;;;;;8.60;99.90;;;;;;5051956;28;19956;-70
2021/11/03 11:43:37;;;;;;;;;;;8.60;99.90;;;;;;5041420;28;19939;-70
2021/11/03 11:46:09;;;;;;;;;;;8.70;99.90;;;;;;5051958;28;19959;-70
2021/11/03 11:48:39;;;;;;;;;;;8.80;99.90;;;;;;5044381;28;20006;-70
2021/11/03 11:51:08;;;;;;;;;;;8.90;99.90;;;;;;5052987;28;19916;-70
2021/11/03 11:53:37;;;;;;;;;;;8.90;99.90;;;;;;5052542;28;19924;-70
2021/11/03 11:56:06;;;;;;;;;;;8.90;99.90;;;;;;5042275;28;19916;-70
2021/11/03 11:58:34;;;;;;;;;;;8.90;99.90;;;;;;5051929;28;19942;-70
2021/11/03 12:01:11;;;;;;;;;;;9.00;99.90;;;;;;5052498;28;19927;-70
2021/11/03 12:03:42;;;;;;;;;;;9.00;99.90;;;;;;5046266;28;20334;-70
2021/11/03 12:06:08;;;;;;;;;;;9.00;99.90;;;;;;5052338;28;19956;-70
2021/11/03 12:08:53;;;;;;;;;;;9.00;99.90;;;;;;5043693;28;19956;-70
2021/11/03 12:11:20;;;;;;;;;;;9.00;99.90;;;;;;5052135;28;19986;-70
2021/11/03 12:13:46;;;;;;;;;;;9.00;99.90;;;;;;5053585;28;20034;-70
2021/11/03 12:16:20;;;;;;;;;;;8.80;99.90;;;;;;5051589;28;19935;-70
2021/11/03 12:18:51;;;;;;;;;;;8.50;99.90;;;;;;5051923;28;19928;-70
2021/11/03 12:21:32;;;;;;;;;;;8.50;99.90;;;;;;5043210;28;19916;-70
2021/11/03 12:24:07;;;;;;;;;;;8.50;99.90;;;;;;5052049;28;19923;-70
2021/11/03 12:26:34;;;;;;;;;;;8.50;99.90;;;;;;5051856;28;19921;-70
2021/11/03 12:29:02;;;;;;;;;;;8.60;99.90;;;;;;5052220;28;20023;-70
2021/11/03 12:31:31;;;;;;;;;;;8.50;99.90;;;;;;5035105;28;20639;-70
2021/11/03 12:34:02;;;;;;;;;;;8.60;99.90;;;;;;5051323;28;20426;-70
2021/11/03 12:36:29;;;;;;;;;;;8.70;99.90;;;;;;5051823;28;20502;-70
2021/11/03 12:38:56;;;;;;;;;;;8.70;99.90;;;;;;5051268;28;20015;-70
2021/11/03 12:41:23;;;;;;;;;;;8.60;99.90;;;;;;5051743;28;20471;-70
2021/11/03 12:43:52;;;;;;;;;;;8.70;99.90;;;;;;5042574;28;19923;-70
2021/11/03 12:46:19;;;;;;;;;;;8.70;99.90;;;;;;5027950;28;19921;-70
2021/11/03 12:48:49;;;;;;;;;;;8.60;99.90;;;;;;5048934;28;19971;-70
2021/11/03 12:51:23;;;;;;;;;;;8.50;99.90;;;;;;5050661;28;19924;-70
2021/11/03 12:54:08;;;;;;;;;;;8.60;99.90;;;;;;5051355;28;19925;-70
2021/11/03 12:56:35;;;;;;;;;;;8.60;99.90;;;;;;5043845;28;19916;-70
2021/11/03 12:59:04;;;;;;;;;;;8.70;99.90;;;;;;5051582;28;19955;-70
2021/11/03 13:01:31;;;;;;;;;;;8.80;99.90;;;;;;5052646;28;19916;-70
2021/11/03 13:03:58;;;;;;;;;;;8.80;99.90;;;;;;5051564;28;20284;-70
2021/11/03 13:06:29;;;;;;;;;;;8.90;99.90;;;;;;5048933;28;19967;-70
2021/11/03 13:08:55;;;;;;;;;;;8.90;99.90;;;;;;5042498;28;20294;-70
2021/11/03 13:11:29;;;;;;;;;;;8.90;99.90;;;;;;5051084;28;19916;-70
2021/11/03 13:13:56;;;;;;;;;;;8.80;99.90;;;;;;5043600;28;19923;-70
2021/11/03 13:16:25;;;;;;;;;;;8.70;99.90;;;;;;5051080;28;19950;-70
2021/11/03 13:18:51;;;;;;;;;;;8.60;99.90;;;;;;5042813;28;19917;-70
2021/11/03 13:21:19;;;;;;;;;;;8.60;99.90;;;;;;5041343;28;19928;-70
2021/11/03 13:23:46;;;;;;;;;;;8.60;99.90;;;;;;5045615;28;20574;-70
2021/11/03 13:26:21;;;;;;;;;;;8.70;99.90;;;;;;5038252;28;20002;-70
2021/11/03 13:28:48;;;;;;;;;;;8.80;99.90;;;;;;5034253;28;19920;-70
2021/11/03 13:31:32;;;;;;;;;;;8.80;99.90;;;;;;5050672;28;19973;-70
2021/11/03 13:34:04;;;;;;;;;;;8.80;99.90;;;;;;5042781;28;19916;-70
2021/11/03 13:36:31;;;;;;;;;;;8.90;99.90;;;;;;5050872;28;19920;-70
2021/11/03 13:38:58;;;;;;;;;;;9.00;99.90;;;;;;5051692;28;20386;-70
2021/11/03 13:41:26;;;;;;;;;;;9.00;99.90;;;;;;5049087;28;20374;-70
2021/11/03 13:44:11;;;;;;;;;;;9.00;99.90;;;;;;5047135;28;19965;-70
2021/11/03 13:46:36;;;;;;;;;;;9.00;99.90;;;;;;5042935;28;19916;-70
2021/11/03 13:49:11;;;;;;;;;;;8.90;99.90;;;;;;5050310;28;19927;-70
2021/11/03 13:51:46;;;;;;;;;;;9.00;99.90;;;;;;5050297;28;19928;-70
2021/11/03 13:54:18;;;;;;;;;;;9.00;99.90;;;;;;5038672;28;19921;-70
2021/11/03 13:56:47;;;;;;;;;;;9.00;99.90;;;;;;5049623;28;19921;-70
2021/11/03 13:59:23;;;;;;;;;;;9.00;99.90;;;;;;5048830;28;19917;-70
2021/11/03 14:01:57;;;;;;;;;;;9.00;99.90;;;;;;5049773;28;19925;-70
2021/11/03 14:04:32;;;;;;;;;;;9.00;99.90;;;;;;5033455;28;19966;-70
2021/11/03 14:07:18;;;;;;;;;;;8.90;99.90;;;;;;5043097;28;20362;-70
2021/11/03 14:09:44;;;;;;;;;;;8.70;99.90;;;;;;5043912;28;19920;-70
2021/11/03 14:12:10;;;;;;;;;;;8.70;99.90;;;;;;5050255;28;19920;-70
2021/11/03 14:14:36;;;;;;;;;;;8.60;99.90;;;;;;5049149;28;19927;-70
2021/11/03 14:17:06;;;;;;;;;;;8.60;99.90;;;;;;5049935;28;19928;-70
2021/11/03 14:19:39;;;;;;;;;;;8.60;99.90;;;;;;5033578;28;19959;-70
2021/11/03 14:22:10;;;;;;;;;;;8.60;99.90;;;;;;5051229;28;19924;-70
2021/11/03 14:24:35;;;;;;;;;;;8.60;99.90;;;;;;5049977;28;19920;-70
2021/11/03 14:27:00;;;;;;;;;;;8.60;99.90;;;;;;5049942;28;19920;-70
2021/11/03 14:29:26;;;;;;;;;;;8.60;99.90;;;;;;5050078;28;19920;-70
2021/11/03 14:31:53;;;;;;;;;;;8.70;99.90;;;;;;5049221;28;19917;-70
2021/11/03 14:34:20;;;;;;;;;;;8.70;99.90;;;;;;5051265;28;19920;-70